sensor_id;sensor_type;location;lat;lon;timestamp;P1;durP1;ratioP1;P2;durP2;ratioP2
27491;SDS011;14927;51.210;6.838;2022-11-15T00:00:07;6.95;;;5.70;;
27491;SDS011;14927;51.210;6.838;2022-11-15T00:02:53;7.15;;;5.68;;
27491;SDS011;14927;51.210;6.838;2022-11-15T00:05:38;7.93;;;5.30;;
27491;SDS011;14927;51.210;6.838;2022-11-15T00:08:23;7.65;;;5.32;;
27491;SDS011;14927;51.210;6.838;2022-11-15T00:11:08;8.20;;;5.82;;
27491;SDS011;14927;51.210;6.838;2022-11-15T00:13:55;7.05;;;4.97;;
27491;SDS011;14927;51.210;6.838;2022-11-15T00:16:41;9.52;;;5.38;;
27491;SDS011;14927;51.210;6.838;2022-11-15T00:19:26;9.93;;;6.30;;
27491;SDS011;14927;51.210;6.838;2022-11-15T00:22:10;10.63;;;5.50;;
27491;SDS011;14927;51.210;6.838;2022-11-15T00:24:55;8.70;;;5.75;;
27491;SDS011;14927;51.210;6.838;2022-11-15T00:27:39;12.70;;;5.63;;
27491;SDS011;14927;51.210;6.838;2022-11-15T00:30:25;8.02;;;5.75;;
27491;SDS011;14927;51.210;6.838;2022-11-15T00:33:10;11.60;;;6.00;;
27491;SDS011;14927;51.210;6.838;2022-11-15T00:36:05;8.52;;;5.70;;
27491;SDS011;14927;51.210;6.838;2022-11-15T00:38:52;9.07;;;5.93;;
27491;SDS011;14927;51.210;6.838;2022-11-15T00:41:37;10.60;;;6.05;;
27491;SDS011;14927;51.210;6.838;2022-11-15T00:44:22;8.50;;;5.72;;
27491;SDS011;14927;51.210;6.838;2022-11-15T00:47:07;10.95;;;5.95;;
27491;SDS011;14927;51.210;6.838;2022-11-15T00:49:52;8.68;;;4.97;;
27491;SDS011;14927;51.210;6.838;2022-11-15T00:52:36;11.27;;;6.13;;
27491;SDS011;14927;51.210;6.838;2022-11-15T00:55:21;8.90;;;5.70;;
27491;SDS011;14927;51.210;6.838;2022-11-15T00:58:05;9.32;;;5.90;;
27491;SDS011;14927;51.210;6.838;2022-11-15T01:00:50;9.77;;;5.00;;
27491;SDS011;14927;51.210;6.838;2022-11-15T01:03:35;8.07;;;4.93;;
27491;SDS011;14927;51.210;6.838;2022-11-15T01:06:21;8.77;;;5.80;;
27491;SDS011;14927;51.210;6.838;2022-11-15T01:09:05;9.07;;;5.43;;
27491;SDS011;14927;51.210;6.838;2022-11-15T01:11:50;8.15;;;5.68;;
27491;SDS011;14927;51.210;6.838;2022-11-15T01:14:35;7.57;;;5.15;;
27491;SDS011;14927;51.210;6.838;2022-11-15T01:17:20;11.52;;;5.82;;
27491;SDS011;14927;51.210;6.838;2022-11-15T01:20:04;10.82;;;5.20;;
27491;SDS011;14927;51.210;6.838;2022-11-15T01:22:49;9.13;;;5.57;;
27491;SDS011;14927;51.210;6.838;2022-11-15T01:25:34;9.38;;;5.20;;
27491;SDS011;14927;51.210;6.838;2022-11-15T01:28:19;9.63;;;5.15;;
27491;SDS011;14927;51.210;6.838;2022-11-15T01:31:04;8.10;;;4.85;;
27491;SDS011;14927;51.210;6.838;2022-11-15T01:33:52;11.70;;;5.20;;
27491;SDS011;14927;51.210;6.838;2022-11-15T01:36:37;9.38;;;5.00;;
27491;SDS011;14927;51.210;6.838;2022-11-15T01:39:22;7.63;;;5.25;;
27491;SDS011;14927;51.210;6.838;2022-11-15T01:42:09;10.98;;;5.55;;
27491;SDS011;14927;51.210;6.838;2022-11-15T01:44:57;8.05;;;4.57;;
27491;SDS011;14927;51.210;6.838;2022-11-15T01:47:43;10.85;;;6.07;;
27491;SDS011;14927;51.210;6.838;2022-11-15T01:50:34;9.80;;;5.22;;
27491;SDS011;14927;51.210;6.838;2022-11-15T01:53:19;7.90;;;5.13;;
27491;SDS011;14927;51.210;6.838;2022-11-15T01:56:09;8.65;;;5.32;;
27491;SDS011;14927;51.210;6.838;2022-11-15T01:58:59;8.68;;;5.70;;
27491;SDS011;14927;51.210;6.838;2022-11-15T02:01:47;7.75;;;5.30;;
27491;SDS011;14927;51.210;6.838;2022-11-15T02:04:32;8.15;;;5.18;;
27491;SDS011;14927;51.210;6.838;2022-11-15T02:07:23;14.30;;;6.03;;
27491;SDS011;14927;51.210;6.838;2022-11-15T02:10:12;8.45;;;5.28;;
27491;SDS011;14927;51.210;6.838;2022-11-15T02:13:02;7.50;;;5.28;;
27491;SDS011;14927;51.210;6.838;2022-11-15T02:15:53;8.07;;;5.10;;
27491;SDS011;14927;51.210;6.838;2022-11-15T02:29:06;7.78;;;5.55;;
27491;SDS011;14927;51.210;6.838;2022-11-15T02:35:02;9.15;;;5.55;;
27491;SDS011;14927;51.210;6.838;2022-11-15T02:38:28;11.68;;;5.53;;
27491;SDS011;14927;51.210;6.838;2022-11-15T02:41:39;12.48;;;5.78;;
27491;SDS011;14927;51.210;6.838;2022-11-15T02:44:35;10.77;;;5.32;;
27491;SDS011;14927;51.210;6.838;2022-11-15T02:47:25;8.68;;;5.40;;
27491;SDS011;14927;51.210;6.838;2022-11-15T02:50:16;9.68;;;5.25;;
27491;SDS011;14927;51.210;6.838;2022-11-15T02:53:04;9.07;;;4.85;;
27491;SDS011;14927;51.210;6.838;2022-11-15T02:55:48;10.85;;;5.47;;
27491;SDS011;14927;51.210;6.838;2022-11-15T03:02:10;8.90;;;5.75;;
27491;SDS011;14927;51.210;6.838;2022-11-15T03:05:22;8.70;;;5.80;;
27491;SDS011;14927;51.210;6.838;2022-11-15T03:08:36;6.78;;;5.13;;
27491;SDS011;14927;51.210;6.838;2022-11-15T03:11:55;8.30;;;5.15;;
27491;SDS011;14927;51.210;6.838;2022-11-15T03:14:59;9.43;;;5.57;;
27491;SDS011;14927;51.210;6.838;2022-11-15T03:20:46;14.95;;;5.97;;
27491;SDS011;14927;51.210;6.838;2022-11-15T03:23:32;9.38;;;5.82;;
27491;SDS011;14927;51.210;6.838;2022-11-15T03:26:21;7.45;;;5.63;;
27491;SDS011;14927;51.210;6.838;2022-11-15T03:29:19;8.85;;;5.68;;
27491;SDS011;14927;51.210;6.838;2022-11-15T03:32:11;9.43;;;5.25;;
27491;SDS011;14927;51.210;6.838;2022-11-15T03:41:00;9.43;;;5.75;;
27491;SDS011;14927;51.210;6.838;2022-11-15T03:43:52;8.50;;;5.18;;
27491;SDS011;14927;51.210;6.838;2022-11-15T03:47:06;7.88;;;4.90;;
27491;SDS011;14927;51.210;6.838;2022-11-15T03:50:14;7.50;;;4.95;;
27491;SDS011;14927;51.210;6.838;2022-11-15T03:53:02;10.80;;;5.70;;
27491;SDS011;14927;51.210;6.838;2022-11-15T03:55:47;8.02;;;5.65;;
27491;SDS011;14927;51.210;6.838;2022-11-15T03:58:31;9.88;;;5.30;;
27491;SDS011;14927;51.210;6.838;2022-11-15T04:01:16;9.85;;;5.10;;
27491;SDS011;14927;51.210;6.838;2022-11-15T04:04:01;8.25;;;5.10;;
27491;SDS011;14927;51.210;6.838;2022-11-15T04:06:45;9.80;;;5.40;;
27491;SDS011;14927;51.210;6.838;2022-11-15T04:09:30;8.02;;;4.47;;
27491;SDS011;14927;51.210;6.838;2022-11-15T04:12:15;9.15;;;4.80;;
27491;SDS011;14927;51.210;6.838;2022-11-15T04:15:15;8.18;;;5.75;;
27491;SDS011;14927;51.210;6.838;2022-11-15T04:18:05;6.60;;;4.75;;
27491;SDS011;14927;51.210;6.838;2022-11-15T04:20:50;6.60;;;4.50;;
27491;SDS011;14927;51.210;6.838;2022-11-15T04:23:53;6.05;;;4.25;;
27491;SDS011;14927;51.210;6.838;2022-11-15T04:26:49;5.97;;;4.15;;
27491;SDS011;14927;51.210;6.838;2022-11-15T04:29:34;8.20;;;4.60;;
27491;SDS011;14927;51.210;6.838;2022-11-15T04:32:19;9.30;;;4.82;;
27491;SDS011;14927;51.210;6.838;2022-11-15T04:35:03;7.90;;;4.85;;
27491;SDS011;14927;51.210;6.838;2022-11-15T04:37:48;8.80;;;4.80;;
27491;SDS011;14927;51.210;6.838;2022-11-15T04:40:33;6.20;;;4.63;;
27491;SDS011;14927;51.210;6.838;2022-11-15T04:43:19;6.53;;;4.38;;
27491;SDS011;14927;51.210;6.838;2022-11-15T04:46:03;6.30;;;4.55;;
27491;SDS011;14927;51.210;6.838;2022-11-15T04:48:48;6.90;;;4.47;;
27491;SDS011;14927;51.210;6.838;2022-11-15T04:51:33;6.30;;;4.20;;
27491;SDS011;14927;51.210;6.838;2022-11-15T04:54:17;7.40;;;4.43;;
27491;SDS011;14927;51.210;6.838;2022-11-15T04:57:02;7.72;;;4.45;;
27491;SDS011;14927;51.210;6.838;2022-11-15T04:59:47;6.35;;;4.75;;
27491;SDS011;14927;51.210;6.838;2022-11-15T05:02:31;5.78;;;4.45;;
27491;SDS011;14927;51.210;6.838;2022-11-15T05:05:54;6.38;;;4.85;;
27491;SDS011;14927;51.210;6.838;2022-11-15T05:08:39;6.15;;;4.07;;
27491;SDS011;14927;51.210;6.838;2022-11-15T05:11:23;7.68;;;4.68;;
27491;SDS011;14927;51.210;6.838;2022-11-15T05:14:08;7.85;;;5.03;;
27491;SDS011;14927;51.210;6.838;2022-11-15T05:16:52;6.57;;;4.82;;
27491;SDS011;14927;51.210;6.838;2022-11-15T05:19:37;6.28;;;4.70;;
27491;SDS011;14927;51.210;6.838;2022-11-15T05:22:21;9.48;;;4.82;;
27491;SDS011;14927;51.210;6.838;2022-11-15T05:25:06;6.18;;;4.78;;
27491;SDS011;14927;51.210;6.838;2022-11-15T05:27:51;6.00;;;4.38;;
27491;SDS011;14927;51.210;6.838;2022-11-15T05:30:36;5.95;;;4.50;;
27491;SDS011;14927;51.210;6.838;2022-11-15T05:33:20;7.18;;;5.32;;
27491;SDS011;14927;51.210;6.838;2022-11-15T05:39:21;7.78;;;5.38;;
27491;SDS011;14927;51.210;6.838;2022-11-15T05:42:07;7.07;;;4.60;;
27491;SDS011;14927;51.210;6.838;2022-11-15T05:44:55;5.28;;;4.78;;
27491;SDS011;14927;51.210;6.838;2022-11-15T05:47:40;6.70;;;5.07;;
27491;SDS011;14927;51.210;6.838;2022-11-15T05:50:25;6.55;;;4.88;;
27491;SDS011;14927;51.210;6.838;2022-11-15T05:53:10;8.68;;;5.55;;
27491;SDS011;14927;51.210;6.838;2022-11-15T05:55:58;5.85;;;5.00;;
27491;SDS011;14927;51.210;6.838;2022-11-15T05:58:43;5.53;;;4.32;;
27491;SDS011;14927;51.210;6.838;2022-11-15T06:01:27;5.70;;;5.07;;
27491;SDS011;14927;51.210;6.838;2022-11-15T06:04:12;7.40;;;4.97;;
27491;SDS011;14927;51.210;6.838;2022-11-15T06:06:57;10.80;;;4.13;;
27491;SDS011;14927;51.210;6.838;2022-11-15T06:09:43;5.47;;;4.10;;
27491;SDS011;14927;51.210;6.838;2022-11-15T06:12:27;7.82;;;4.15;;
27491;SDS011;14927;51.210;6.838;2022-11-15T06:15:12;4.80;;;3.97;;
27491;SDS011;14927;51.210;6.838;2022-11-15T06:17:57;4.35;;;3.92;;
27491;SDS011;14927;51.210;6.838;2022-11-15T06:20:41;5.90;;;4.05;;
27491;SDS011;14927;51.210;6.838;2022-11-15T06:23:26;5.15;;;4.13;;
27491;SDS011;14927;51.210;6.838;2022-11-15T06:26:11;4.32;;;3.55;;
27491;SDS011;14927;51.210;6.838;2022-11-15T06:28:56;5.15;;;3.92;;
27491;SDS011;14927;51.210;6.838;2022-11-15T06:31:41;5.90;;;4.10;;
27491;SDS011;14927;51.210;6.838;2022-11-15T06:34:25;6.18;;;3.88;;
27491;SDS011;14927;51.210;6.838;2022-11-15T06:37:10;4.88;;;3.60;;
27491;SDS011;14927;51.210;6.838;2022-11-15T06:39:55;5.13;;;3.15;;
27491;SDS011;14927;51.210;6.838;2022-11-15T06:42:39;9.13;;;3.78;;
27491;SDS011;14927;51.210;6.838;2022-11-15T06:45:24;5.63;;;3.90;;
27491;SDS011;14927;51.210;6.838;2022-11-15T06:48:08;8.70;;;3.55;;
27491;SDS011;14927;51.210;6.838;2022-11-15T06:50:57;5.68;;;3.33;;
27491;SDS011;14927;51.210;6.838;2022-11-15T06:53:43;7.50;;;3.70;;
27491;SDS011;14927;51.210;6.838;2022-11-15T06:56:27;5.25;;;3.53;;
27491;SDS011;14927;51.210;6.838;2022-11-15T06:59:12;4.03;;;3.63;;
27491;SDS011;14927;51.210;6.838;2022-11-15T07:01:57;4.47;;;3.60;;
27491;SDS011;14927;51.210;6.838;2022-11-15T07:04:41;4.90;;;2.97;;
27491;SDS011;14927;51.210;6.838;2022-11-15T07:07:26;3.72;;;2.97;;
27491;SDS011;14927;51.210;6.838;2022-11-15T07:10:10;6.72;;;3.20;;
27491;SDS011;14927;51.210;6.838;2022-11-15T07:12:57;3.08;;;2.72;;
27491;SDS011;14927;51.210;6.838;2022-11-15T07:15:42;2.50;;;2.30;;
27491;SDS011;14927;51.210;6.838;2022-11-15T07:18:27;5.20;;;2.58;;
27491;SDS011;14927;51.210;6.838;2022-11-15T07:21:11;5.07;;;2.30;;
27491;SDS011;14927;51.210;6.838;2022-11-15T07:23:56;5.25;;;2.25;;
27491;SDS011;14927;51.210;6.838;2022-11-15T07:26:40;3.63;;;2.30;;
27491;SDS011;14927;51.210;6.838;2022-11-15T07:29:25;5.32;;;2.80;;
27491;SDS011;14927;51.210;6.838;2022-11-15T07:32:10;2.95;;;2.17;;
27491;SDS011;14927;51.210;6.838;2022-11-15T07:34:55;4.60;;;2.78;;
27491;SDS011;14927;51.210;6.838;2022-11-15T07:37:39;11.85;;;2.58;;
27491;SDS011;14927;51.210;6.838;2022-11-15T07:40:24;3.65;;;2.38;;
27491;SDS011;14927;51.210;6.838;2022-11-15T07:43:14;3.38;;;2.47;;
27491;SDS011;14927;51.210;6.838;2022-11-15T07:45:58;4.53;;;2.50;;
27491;SDS011;14927;51.210;6.838;2022-11-15T07:48:52;3.10;;;2.28;;
27491;SDS011;14927;51.210;6.838;2022-11-15T07:51:37;2.08;;;1.88;;
27491;SDS011;14927;51.210;6.838;2022-11-15T07:54:22;4.97;;;2.47;;
27491;SDS011;14927;51.210;6.838;2022-11-15T07:57:07;3.90;;;2.25;;
27491;SDS011;14927;51.210;6.838;2022-11-15T07:59:53;5.82;;;2.50;;
27491;SDS011;14927;51.210;6.838;2022-11-15T08:02:38;5.95;;;1.90;;
27491;SDS011;14927;51.210;6.838;2022-11-15T08:05:23;3.83;;;1.92;;
27491;SDS011;14927;51.210;6.838;2022-11-15T08:08:08;3.65;;;2.25;;
27491;SDS011;14927;51.210;6.838;2022-11-15T08:10:57;4.43;;;2.17;;
27491;SDS011;14927;51.210;6.838;2022-11-15T08:13:42;3.22;;;1.50;;
27491;SDS011;14927;51.210;6.838;2022-11-15T08:16:27;2.38;;;1.67;;
27491;SDS011;14927;51.210;6.838;2022-11-15T08:19:11;3.28;;;1.95;;
27491;SDS011;14927;51.210;6.838;2022-11-15T08:21:56;3.28;;;1.63;;
27491;SDS011;14927;51.210;6.838;2022-11-15T08:24:40;4.63;;;1.90;;
27491;SDS011;14927;51.210;6.838;2022-11-15T08:27:25;4.03;;;1.98;;
27491;SDS011;14927;51.210;6.838;2022-11-15T08:30:10;3.80;;;1.80;;
27491;SDS011;14927;51.210;6.838;2022-11-15T08:32:56;5.57;;;2.10;;
27491;SDS011;14927;51.210;6.838;2022-11-15T08:35:41;6.32;;;1.98;;
27491;SDS011;14927;51.210;6.838;2022-11-15T08:38:26;10.80;;;1.90;;
27491;SDS011;14927;51.210;6.838;2022-11-15T08:41:28;2.85;;;1.88;;
27491;SDS011;14927;51.210;6.838;2022-11-15T08:44:18;5.53;;;2.40;;
27491;SDS011;14927;51.210;6.838;2022-11-15T08:47:03;3.08;;;1.95;;
27491;SDS011;14927;51.210;6.838;2022-11-15T08:49:47;4.07;;;2.00;;
27491;SDS011;14927;51.210;6.838;2022-11-15T08:52:32;3.58;;;2.10;;
27491;SDS011;14927;51.210;6.838;2022-11-15T08:55:16;4.85;;;1.75;;
27491;SDS011;14927;51.210;6.838;2022-11-15T08:58:01;5.18;;;2.33;;
27491;SDS011;14927;51.210;6.838;2022-11-15T09:00:46;8.63;;;1.70;;
27491;SDS011;14927;51.210;6.838;2022-11-15T09:03:30;5.57;;;1.63;;
27491;SDS011;14927;51.210;6.838;2022-11-15T09:06:15;2.28;;;1.50;;
27491;SDS011;14927;51.210;6.838;2022-11-15T09:09:00;4.88;;;1.55;;
27491;SDS011;14927;51.210;6.838;2022-11-15T09:11:45;2.83;;;1.20;;
27491;SDS011;14927;51.210;6.838;2022-11-15T09:14:30;3.35;;;1.48;;
27491;SDS011;14927;51.210;6.838;2022-11-15T09:17:14;6.90;;;1.38;;
27491;SDS011;14927;51.210;6.838;2022-11-15T09:19:59;2.53;;;1.30;;
27491;SDS011;14927;51.210;6.838;2022-11-15T09:22:44;1.52;;;0.90;;
27491;SDS011;14927;51.210;6.838;2022-11-15T09:25:28;4.05;;;1.35;;
27491;SDS011;14927;51.210;6.838;2022-11-15T09:28:13;3.13;;;1.40;;
27491;SDS011;14927;51.210;6.838;2022-11-15T09:30:58;3.05;;;1.45;;
27491;SDS011;14927;51.210;6.838;2022-11-15T09:33:48;6.88;;;1.55;;
27491;SDS011;14927;51.210;6.838;2022-11-15T09:36:33;4.68;;;1.30;;
27491;SDS011;14927;51.210;6.838;2022-11-15T09:39:19;2.00;;;1.33;;
27491;SDS011;14927;51.210;6.838;2022-11-15T09:45:37;3.65;;;1.13;;
27491;SDS011;14927;51.210;6.838;2022-11-15T09:51:43;2.22;;;0.90;;
27491;SDS011;14927;51.210;6.838;2022-11-15T09:54:39;1.30;;;0.68;;
27491;SDS011;14927;51.210;6.838;2022-11-15T09:57:46;1.33;;;0.88;;
27491;SDS011;14927;51.210;6.838;2022-11-15T10:00:45;5.53;;;1.30;;
27491;SDS011;14927;51.210;6.838;2022-11-15T10:03:36;2.10;;;1.02;;
27491;SDS011;14927;51.210;6.838;2022-11-15T10:06:25;1.05;;;0.70;;
27491;SDS011;14927;51.210;6.838;2022-11-15T10:09:19;4.72;;;1.02;;
27491;SDS011;14927;51.210;6.838;2022-11-15T10:12:11;1.30;;;0.73;;
27491;SDS011;14927;51.210;6.838;2022-11-15T10:15:03;1.92;;;0.80;;
27491;SDS011;14927;51.210;6.838;2022-11-15T10:20:56;2.65;;;0.82;;
27491;SDS011;14927;51.210;6.838;2022-11-15T10:23:44;3.10;;;1.02;;
27491;SDS011;14927;51.210;6.838;2022-11-15T10:26:31;3.20;;;0.88;;
27491;SDS011;14927;51.210;6.838;2022-11-15T10:29:22;2.63;;;0.90;;
27491;SDS011;14927;51.210;6.838;2022-11-15T10:32:09;1.08;;;0.90;;
27491;SDS011;14927;51.210;6.838;2022-11-15T10:35:00;3.22;;;0.70;;
27491;SDS011;14927;51.210;6.838;2022-11-15T10:38:10;5.07;;;0.63;;
27491;SDS011;14927;51.210;6.838;2022-11-15T10:40:57;1.80;;;0.60;;
27491;SDS011;14927;51.210;6.838;2022-11-15T10:44:34;5.03;;;1.85;;
27491;SDS011;14927;51.210;6.838;2022-11-15T10:47:22;2.75;;;1.00;;
27491;SDS011;14927;51.210;6.838;2022-11-15T10:50:30;5.75;;;1.10;;
27491;SDS011;14927;51.210;6.838;2022-11-15T10:56:14;4.78;;;1.05;;
27491;SDS011;14927;51.210;6.838;2022-11-15T10:59:04;8.52;;;0.98;;
27491;SDS011;14927;51.210;6.838;2022-11-15T11:01:49;2.63;;;0.68;;
27491;SDS011;14927;51.210;6.838;2022-11-15T11:04:48;2.30;;;0.52;;
27491;SDS011;14927;51.210;6.838;2022-11-15T11:07:34;4.38;;;0.80;;
27491;SDS011;14927;51.210;6.838;2022-11-15T11:10:20;2.35;;;0.60;;
27491;SDS011;14927;51.210;6.838;2022-11-15T11:13:15;11.93;;;1.00;;
27491;SDS011;14927;51.210;6.838;2022-11-15T11:23:02;3.53;;;0.90;;
27491;SDS011;14927;51.210;6.838;2022-11-15T11:42:39;3.53;;;0.65;;
27491;SDS011;14927;51.210;6.838;2022-11-15T11:48:57;2.17;;;0.68;;
27491;SDS011;14927;51.210;6.838;2022-11-15T11:51:56;4.72;;;0.75;;
27491;SDS011;14927;51.210;6.838;2022-11-15T11:58:11;2.53;;;0.70;;
27491;SDS011;14927;51.210;6.838;2022-11-15T12:04:16;3.35;;;0.77;;
27491;SDS011;14927;51.210;6.838;2022-11-15T12:07:15;6.95;;;0.57;;
27491;SDS011;14927;51.210;6.838;2022-11-15T12:13:11;2.63;;;0.70;;
27491;SDS011;14927;51.210;6.838;2022-11-15T12:16:03;2.67;;;0.75;;
27491;SDS011;14927;51.210;6.838;2022-11-15T12:19:07;2.40;;;0.60;;
27491;SDS011;14927;51.210;6.838;2022-11-15T12:22:06;5.53;;;0.80;;
27491;SDS011;14927;51.210;6.838;2022-11-15T12:25:00;2.30;;;0.50;;
27491;SDS011;14927;51.210;6.838;2022-11-15T12:27:59;3.40;;;0.50;;
27491;SDS011;14927;51.210;6.838;2022-11-15T12:31:11;11.68;;;0.75;;
27491;SDS011;14927;51.210;6.838;2022-11-15T12:40:25;3.38;;;0.60;;
27491;SDS011;14927;51.210;6.838;2022-11-15T12:46:01;3.80;;;0.85;;
27491;SDS011;14927;51.210;6.838;2022-11-15T12:48:50;2.47;;;0.60;;
27491;SDS011;14927;51.210;6.838;2022-11-15T13:03:19;2.25;;;0.50;;
27491;SDS011;14927;51.210;6.838;2022-11-15T13:06:08;1.02;;;0.45;;
27491;SDS011;14927;51.210;6.838;2022-11-15T13:17:56;2.15;;;0.50;;
27491;SDS011;14927;51.210;6.838;2022-11-15T13:20:44;2.70;;;0.85;;
27491;SDS011;14927;51.210;6.838;2022-11-15T13:23:29;3.03;;;0.60;;
27491;SDS011;14927;51.210;6.838;2022-11-15T13:26:14;6.05;;;0.70;;
27491;SDS011;14927;51.210;6.838;2022-11-15T13:29:04;3.70;;;0.68;;
27491;SDS011;14927;51.210;6.838;2022-11-15T13:31:58;4.40;;;0.70;;
27491;SDS011;14927;51.210;6.838;2022-11-15T13:34:44;6.78;;;1.65;;
27491;SDS011;14927;51.210;6.838;2022-11-15T13:37:31;4.38;;;0.70;;
27491;SDS011;14927;51.210;6.838;2022-11-15T13:40:33;2.08;;;0.60;;
27491;SDS011;14927;51.210;6.838;2022-11-15T13:46:13;2.75;;;0.80;;
27491;SDS011;14927;51.210;6.838;2022-11-15T13:49:05;2.85;;;0.80;;
27491;SDS011;14927;51.210;6.838;2022-11-15T13:51:55;0.82;;;0.50;;
27491;SDS011;14927;51.210;6.838;2022-11-15T13:54:44;3.03;;;0.70;;
27491;SDS011;14927;51.210;6.838;2022-11-15T13:57:48;3.53;;;0.75;;
27491;SDS011;14927;51.210;6.838;2022-11-15T14:00:44;3.08;;;0.68;;
27491;SDS011;14927;51.210;6.838;2022-11-15T14:03:31;1.88;;;0.82;;
27491;SDS011;14927;51.210;6.838;2022-11-15T14:06:19;2.25;;;0.73;;
27491;SDS011;14927;51.210;6.838;2022-11-15T14:11:55;5.40;;;1.00;;
27491;SDS011;14927;51.210;6.838;2022-11-15T14:14:45;3.38;;;0.90;;
27491;SDS011;14927;51.210;6.838;2022-11-15T14:20:58;2.42;;;0.73;;
27491;SDS011;14927;51.210;6.838;2022-11-15T14:29:26;4.72;;;1.10;;
27491;SDS011;14927;51.210;6.838;2022-11-15T14:32:14;4.38;;;1.63;;
27491;SDS011;14927;51.210;6.838;2022-11-15T14:35:02;4.47;;;1.05;;
27491;SDS011;14927;51.210;6.838;2022-11-15T14:37:47;4.30;;;1.30;;
27491;SDS011;14927;51.210;6.838;2022-11-15T14:40:32;1.88;;;1.08;;
27491;SDS011;14927;51.210;6.838;2022-11-15T14:43:16;2.72;;;1.10;;
27491;SDS011;14927;51.210;6.838;2022-11-15T14:46:01;1.95;;;1.33;;
27491;SDS011;14927;51.210;6.838;2022-11-15T14:48:46;5.55;;;1.83;;
27491;SDS011;14927;51.210;6.838;2022-11-15T14:51:30;2.25;;;1.25;;
27491;SDS011;14927;51.210;6.838;2022-11-15T14:54:18;2.00;;;1.30;;
27491;SDS011;14927;51.210;6.838;2022-11-15T14:57:03;2.83;;;1.30;;
27491;SDS011;14927;51.210;6.838;2022-11-15T14:59:48;2.42;;;1.27;;
27491;SDS011;14927;51.210;6.838;2022-11-15T15:02:32;8.13;;;1.92;;
27491;SDS011;14927;51.210;6.838;2022-11-15T15:08:05;4.85;;;1.60;;
27491;SDS011;14927;51.210;6.838;2022-11-15T15:10:50;3.22;;;1.15;;
27491;SDS011;14927;51.210;6.838;2022-11-15T15:13:35;2.75;;;1.10;;
27491;SDS011;14927;51.210;6.838;2022-11-15T15:16:20;4.88;;;1.60;;
27491;SDS011;14927;51.210;6.838;2022-11-15T15:19:05;2.72;;;1.60;;
27491;SDS011;14927;51.210;6.838;2022-11-15T15:21:50;5.55;;;1.20;;
27491;SDS011;14927;51.210;6.838;2022-11-15T15:24:34;3.00;;;1.38;;
27491;SDS011;14927;51.210;6.838;2022-11-15T15:27:19;2.88;;;1.40;;
27491;SDS011;14927;51.210;6.838;2022-11-15T15:30:04;2.97;;;0.93;;
27491;SDS011;14927;51.210;6.838;2022-11-15T15:32:48;4.25;;;1.45;;
27491;SDS011;14927;51.210;6.838;2022-11-15T15:35:34;3.05;;;1.13;;
27491;SDS011;14927;51.210;6.838;2022-11-15T15:38:19;3.08;;;1.50;;
27491;SDS011;14927;51.210;6.838;2022-11-15T15:41:03;3.17;;;1.48;;
27491;SDS011;14927;51.210;6.838;2022-11-15T15:43:48;2.33;;;1.10;;
27491;SDS011;14927;51.210;6.838;2022-11-15T15:46:39;2.40;;;1.17;;
27491;SDS011;14927;51.210;6.838;2022-11-15T15:49:24;1.83;;;1.05;;
27491;SDS011;14927;51.210;6.838;2022-11-15T15:52:08;3.38;;;1.23;;
27491;SDS011;14927;51.210;6.838;2022-11-15T15:57:41;2.17;;;1.00;;
27491;SDS011;14927;51.210;6.838;2022-11-15T16:00:25;2.83;;;1.27;;
27491;SDS011;14927;51.210;6.838;2022-11-15T16:03:10;3.90;;;1.25;;
27491;SDS011;14927;51.210;6.838;2022-11-15T16:05:54;4.93;;;1.40;;
27491;SDS011;14927;51.210;6.838;2022-11-15T16:08:39;2.40;;;1.23;;
27491;SDS011;14927;51.210;6.838;2022-11-15T16:11:24;1.33;;;0.80;;
27491;SDS011;14927;51.210;6.838;2022-11-15T16:14:08;4.38;;;1.50;;
27491;SDS011;14927;51.210;6.838;2022-11-15T16:16:53;4.60;;;1.58;;
27491;SDS011;14927;51.210;6.838;2022-11-15T16:19:37;2.22;;;1.20;;
27491;SDS011;14927;51.210;6.838;2022-11-15T16:22:22;2.58;;;1.10;;
27491;SDS011;14927;51.210;6.838;2022-11-15T16:25:07;3.13;;;1.27;;
27491;SDS011;14927;51.210;6.838;2022-11-15T16:27:52;2.67;;;1.17;;
27491;SDS011;14927;51.210;6.838;2022-11-15T16:30:36;4.50;;;1.88;;
27491;SDS011;14927;51.210;6.838;2022-11-15T16:33:21;1.63;;;1.10;;
27491;SDS011;14927;51.210;6.838;2022-11-15T16:36:06;3.03;;;1.50;;
27491;SDS011;14927;51.210;6.838;2022-11-15T16:39:05;2.78;;;1.33;;
27491;SDS011;14927;51.210;6.838;2022-11-15T16:41:52;4.60;;;1.55;;
27491;SDS011;14927;51.210;6.838;2022-11-15T16:44:36;2.00;;;1.50;;
27491;SDS011;14927;51.210;6.838;2022-11-15T16:47:21;2.63;;;1.67;;
27491;SDS011;14927;51.210;6.838;2022-11-15T16:50:09;2.55;;;1.13;;
27491;SDS011;14927;51.210;6.838;2022-11-15T16:53:08;1.45;;;1.02;;
27491;SDS011;14927;51.210;6.838;2022-11-15T16:55:53;3.38;;;1.17;;
27491;SDS011;14927;51.210;6.838;2022-11-15T16:58:39;1.73;;;1.10;;
27491;SDS011;14927;51.210;6.838;2022-11-15T17:01:24;3.60;;;1.40;;
27491;SDS011;14927;51.210;6.838;2022-11-15T17:04:12;2.17;;;1.30;;
27491;SDS011;14927;51.210;6.838;2022-11-15T17:06:57;5.32;;;1.45;;
27491;SDS011;14927;51.210;6.838;2022-11-15T17:09:42;2.08;;;1.30;;
27491;SDS011;14927;51.210;6.838;2022-11-15T17:15:18;3.22;;;1.30;;
27491;SDS011;14927;51.210;6.838;2022-11-15T17:18:02;1.98;;;1.10;;
27491;SDS011;14927;51.210;6.838;2022-11-15T17:23:37;1.67;;;1.00;;
27491;SDS011;14927;51.210;6.838;2022-11-15T17:26:21;2.95;;;1.50;;
27491;SDS011;14927;51.210;6.838;2022-11-15T17:29:06;3.20;;;1.70;;
27491;SDS011;14927;51.210;6.838;2022-11-15T17:31:50;2.42;;;1.38;;
27491;SDS011;14927;51.210;6.838;2022-11-15T17:34:35;5.53;;;1.10;;
27491;SDS011;14927;51.210;6.838;2022-11-15T17:37:20;3.80;;;1.38;;
27491;SDS011;14927;51.210;6.838;2022-11-15T17:40:04;1.75;;;1.27;;
27491;SDS011;14927;51.210;6.838;2022-11-15T17:42:50;3.63;;;1.73;;
27491;SDS011;14927;51.210;6.838;2022-11-15T17:45:39;2.35;;;1.40;;
27491;SDS011;14927;51.210;6.838;2022-11-15T17:48:25;2.05;;;1.27;;
27491;SDS011;14927;51.210;6.838;2022-11-15T17:51:10;3.13;;;1.40;;
27491;SDS011;14927;51.210;6.838;2022-11-15T17:53:57;4.55;;;2.08;;
27491;SDS011;14927;51.210;6.838;2022-11-15T17:56:42;2.80;;;1.75;;
27491;SDS011;14927;51.210;6.838;2022-11-15T17:59:27;2.60;;;1.20;;
27491;SDS011;14927;51.210;6.838;2022-11-15T18:02:11;1.75;;;1.20;;
27491;SDS011;14927;51.210;6.838;2022-11-15T18:04:56;3.65;;;1.60;;
27491;SDS011;14927;51.210;6.838;2022-11-15T18:07:40;2.67;;;1.42;;
27491;SDS011;14927;51.210;6.838;2022-11-15T18:10:25;2.67;;;1.60;;
27491;SDS011;14927;51.210;6.838;2022-11-15T18:13:10;2.97;;;1.67;;
27491;SDS011;14927;51.210;6.838;2022-11-15T18:15:54;3.38;;;1.38;;
27491;SDS011;14927;51.210;6.838;2022-11-15T18:18:39;1.95;;;1.35;;
27491;SDS011;14927;51.210;6.838;2022-11-15T18:21:26;2.70;;;1.40;;
27491;SDS011;14927;51.210;6.838;2022-11-15T18:24:16;3.20;;;1.70;;
27491;SDS011;14927;51.210;6.838;2022-11-15T18:27:01;3.40;;;1.30;;
27491;SDS011;14927;51.210;6.838;2022-11-15T18:29:48;2.30;;;1.40;;
27491;SDS011;14927;51.210;6.838;2022-11-15T18:32:32;2.78;;;1.65;;
27491;SDS011;14927;51.210;6.838;2022-11-15T18:35:17;2.60;;;1.52;;
27491;SDS011;14927;51.210;6.838;2022-11-15T18:38:02;5.57;;;1.88;;
27491;SDS011;14927;51.210;6.838;2022-11-15T18:40:47;2.83;;;1.77;;
27491;SDS011;14927;51.210;6.838;2022-11-15T18:43:31;2.08;;;1.70;;
27491;SDS011;14927;51.210;6.838;2022-11-15T18:46:18;3.63;;;1.98;;
27491;SDS011;14927;51.210;6.838;2022-11-15T18:49:04;2.50;;;1.60;;
27491;SDS011;14927;51.210;6.838;2022-11-15T18:51:52;3.47;;;2.03;;
27491;SDS011;14927;51.210;6.838;2022-11-15T18:54:37;4.22;;;2.13;;
27491;SDS011;14927;51.210;6.838;2022-11-15T18:57:21;3.53;;;2.08;;
27491;SDS011;14927;51.210;6.838;2022-11-15T19:00:06;4.90;;;2.20;;
27491;SDS011;14927;51.210;6.838;2022-11-15T19:02:54;5.72;;;2.70;;
27491;SDS011;14927;51.210;6.838;2022-11-15T19:05:39;9.70;;;2.83;;